Time;durP1;ratioP1;P1;durP2;ratioP2;P2;SDS_P1;SDS_P2;PMS_P1;PMS_P2;Temp;Humidity;BMP_temperature;BMP_pressure;BME280_temperature;BME280_humidity;BME280_pressure;Samples;Min_cycle;Max_cycle;Signal;HPM_P1;HPM_P2
2021/10/14 00:01:04;;;;;;;25.38;14.07;;;;;;;;;;5072039;28;20056;-64
2021/10/14 00:03:49;;;;;;;22.10;13.63;;;;;;;;;;5071804;28;20045;-63
2021/10/14 00:06:35;;;;;;;22.77;14.20;;;;;;;;;;5071929;28;20506;-63
2021/10/14 00:09:20;;;;;;;21.33;13.27;;;;;;;;;;5072016;28;20090;-64
2021/10/14 00:12:05;;;;;;;22.65;14.07;;;;;;;;;;5071928;28;20049;-63
2021/10/14 00:14:51;;;;;;;23.70;14.63;;;;;;;;;;5071516;28;20044;-63
2021/10/14 00:17:36;;;;;;;26.27;14.88;;;;;;;;;;5072074;28;20115;-64
2021/10/14 00:20:21;;;;;;;23.60;14.23;;;;;;;;;;5071938;28;20247;-64
2021/10/14 00:23:07;;;;;;;30.67;15.05;;;;;;;;;;5071820;28;20080;-63
2021/10/14 00:25:52;;;;;;;23.50;13.90;;;;;;;;;;5071985;28;20056;-63
2021/10/14 00:28:37;;;;;;;30.27;15.38;;;;;;;;;;5071830;28;20056;-63
2021/10/14 00:31:23;;;;;;;28.08;15.18;;;;;;;;;;5071825;28;20053;-64
2021/10/14 00:34:08;;;;;;;22.95;14.07;;;;;;;;;;5071291;28;20044;-63
2021/10/14 00:36:53;;;;;;;24.70;14.20;;;;;;;;;;5071679;28;20509;-63
2021/10/14 00:39:39;;;;;;;21.63;13.00;;;;;;;;;;5071633;28;20052;-63
2021/10/14 00:42:24;;;;;;;27.02;14.88;;;;;;;;;;5071419;28;20045;-64
2021/10/14 00:45:09;;;;;;;25.73;14.52;;;;;;;;;;5071566;28;20056;-64
2021/10/14 00:47:55;;;;;;;23.85;13.70;;;;;;;;;;5072063;28;20171;-63
2021/10/14 00:50:40;;;;;;;27.52;14.05;;;;;;;;;;5075485;28;20087;-63
2021/10/14 00:53:26;;;;;;;21.27;12.05;;;;;;;;;;5075416;28;20057;-64
2021/10/14 00:56:11;;;;;;;26.73;13.68;;;;;;;;;;5075398;28;20049;-63
2021/10/14 00:58:56;;;;;;;21.30;14.05;;;;;;;;;;5060142;28;20049;-64
2021/10/14 01:01:41;;;;;;;26.08;14.45;;;;;;;;;;5060365;28;20149;-64
2021/10/14 01:04:26;;;;;;;30.20;15.80;;;;;;;;;;5075123;28;20056;-63
2021/10/14 01:07:12;;;;;;;32.78;16.13;;;;;;;;;;5075233;28;20056;-64
2021/10/14 01:09:57;;;;;;;36.08;17.10;;;;;;;;;;5073833;28;20056;-64
2021/10/14 01:12:43;;;;;;;28.75;15.20;;;;;;;;;;5074658;28;20056;-63
2021/10/14 01:15:29;;;;;;;32.47;15.93;;;;;;;;;;5058466;28;20049;-64
2021/10/14 01:18:14;;;;;;;29.75;15.52;;;;;;;;;;5075063;28;20060;-64
2021/10/14 01:21:00;;;;;;;28.15;15.30;;;;;;;;;;5073003;28;20123;-64
2021/10/14 01:23:45;;;;;;;34.65;15.98;;;;;;;;;;5074519;28;20449;-64
2021/10/14 01:26:30;;;;;;;29.25;15.27;;;;;;;;;;5075074;28;20048;-64
2021/10/14 01:29:16;;;;;;;27.00;14.57;;;;;;;;;;5074391;28;20052;-63
2021/10/14 01:32:02;;;;;;;26.80;14.85;;;;;;;;;;5074694;28;20048;-64
2021/10/14 01:34:47;;;;;;;28.63;15.32;;;;;;;;;;5074586;28;20049;-64
2021/10/14 01:37:32;;;;;;;28.90;16.60;;;;;;;;;;5074528;28;20123;-64
2021/10/14 01:40:18;;;;;;;25.70;14.27;;;;;;;;;;5074599;28;20049;-64
2021/10/14 01:43:03;;;;;;;28.90;14.98;;;;;;;;;;5074445;28;20052;-64
2021/10/14 01:45:48;;;;;;;27.77;15.68;;;;;;;;;;5074428;28;20064;-64
2021/10/14 01:48:34;;;;;;;23.92;14.50;;;;;;;;;;5074411;28;20091;-64
2021/10/14 01:51:19;;;;;;;21.50;12.40;;;;;;;;;;5074450;28;20056;-64
2021/10/14 01:54:04;;;;;;;29.63;14.40;;;;;;;;;;5074000;28;20411;-64
2021/10/14 01:56:50;;;;;;;21.88;13.32;;;;;;;;;;5074212;28;20491;-64
2021/10/14 01:59:35;;;;;;;23.67;13.07;;;;;;;;;;5072904;28;20048;-64
2021/10/14 02:02:20;;;;;;;20.08;11.75;;;;;;;;;;5072373;28;20514;-64
2021/10/14 02:05:06;;;;;;;25.25;12.93;;;;;;;;;;5073802;28;20430;-64
2021/10/14 02:07:51;;;;;;;22.50;12.02;;;;;;;;;;5074016;28;20052;-63
2021/10/14 02:10:37;;;;;;;21.42;11.88;;;;;;;;;;5073889;28;20048;-64
2021/10/14 02:13:22;;;;;;;20.33;11.45;;;;;;;;;;5074183;28;20056;-64
2021/10/14 02:16:07;;;;;;;17.92;10.43;;;;;;;;;;5073388;28;20417;-64
2021/10/14 02:18:53;;;;;;;15.95;9.18;;;;;;;;;;5072834;28;20124;-64
2021/10/14 02:21:38;;;;;;;20.25;10.23;;;;;;;;;;5074173;28;20048;-64
2021/10/14 02:24:24;;;;;;;18.80;8.95;;;;;;;;;;5073466;28;20044;-65
2021/10/14 02:27:09;;;;;;;20.48;9.65;;;;;;;;;;5073872;28;20124;-65
2021/10/14 02:29:54;;;;;;;17.38;8.98;;;;;;;;;;5073511;28;20045;-64
2021/10/14 02:32:40;;;;;;;12.48;7.63;;;;;;;;;;5071982;28;20044;-64
2021/10/14 02:35:25;;;;;;;15.63;8.70;;;;;;;;;;5073450;28;20453;-64
2021/10/14 02:38:10;;;;;;;14.07;7.00;;;;;;;;;;5073777;28;20053;-63
2021/10/14 02:40:56;;;;;;;17.15;7.82;;;;;;;;;;5072952;28;20060;-63
2021/10/14 02:43:41;;;;;;;12.40;6.85;;;;;;;;;;5087293;22;20528;-64
2021/10/14 02:46:27;;;;;;;9.93;6.45;;;;;;;;;;5072665;28;20399;-67
2021/10/14 02:49:12;;;;;;;14.27;7.65;;;;;;;;;;5073313;28;20119;-63
2021/10/14 02:51:57;;;;;;;12.90;5.88;;;;;;;;;;5072245;28;20123;-64
2021/10/14 02:54:43;;;;;;;15.93;5.40;;;;;;;;;;5051985;28;20052;-66
2021/10/14 02:57:28;;;;;;;10.25;5.05;;;;;;;;;;5053328;28;20056;-63
2021/10/14 03:00:14;;;;;;;10.98;5.63;;;;;;;;;;5053318;28;20052;-64
2021/10/14 03:02:59;;;;;;;8.88;4.65;;;;;;;;;;5052985;28;20056;-64
2021/10/14 03:05:45;;;;;;;8.65;4.72;;;;;;;;;;5052817;28;20057;-63
2021/10/14 03:08:30;;;;;;;10.48;5.63;;;;;;;;;;5051635;28;20069;-63
2021/10/14 03:11:15;;;;;;;10.80;5.75;;;;;;;;;;5051365;28;20531;-66
2021/10/14 03:14:00;;;;;;;14.38;5.65;;;;;;;;;;5051145;28;20052;-63
2021/10/14 03:16:46;;;;;;;11.35;5.43;;;;;;;;;;5051368;28;20499;-64
2021/10/14 03:19:31;;;;;;;10.55;6.00;;;;;;;;;;5050983;28;20410;-63
2021/10/14 03:22:16;;;;;;;11.85;6.38;;;;;;;;;;5052344;28;20052;-64
2021/10/14 03:25:01;;;;;;;12.60;6.80;;;;;;;;;;5050956;28;20061;-64
2021/10/14 03:27:46;;;;;;;10.80;5.35;;;;;;;;;;5051111;28;20053;-64
2021/10/14 03:30:31;;;;;;;9.05;4.47;;;;;;;;;;5052579;28;20124;-63
2021/10/14 03:33:17;;;;;;;11.32;5.57;;;;;;;;;;5051856;28;20053;-64
2021/10/14 03:36:02;;;;;;;12.02;5.03;;;;;;;;;;5055105;28;20092;-66
2021/10/14 03:38:47;;;;;;;11.02;6.90;;;;;;;;;;5072005;28;20057;-63
2021/10/14 03:41:33;;;;;;;12.90;6.63;;;;;;;;;;5070991;28;20052;-63
2021/10/14 03:44:18;;;;;;;11.15;6.38;;;;;;;;;;5070636;28;20153;-64
2021/10/14 03:47:03;;;;;;;11.60;6.88;;;;;;;;;;5071368;28;20063;-64
2021/10/14 03:49:49;;;;;;;14.43;8.05;;;;;;;;;;5072208;28;20060;-64
2021/10/14 03:52:34;;;;;;;20.98;10.40;;;;;;;;;;5072178;28;20053;-63
2021/10/14 03:55:19;;;;;;;22.25;11.25;;;;;;;;;;5071950;28;20052;-64
2021/10/14 03:58:05;;;;;;;27.83;12.60;;;;;;;;;;5069369;28;20052;-64
2021/10/14 04:00:50;;;;;;;18.27;11.55;;;;;;;;;;5059504;28;20502;-63
2021/10/14 04:03:35;;;;;;;20.98;12.40;;;;;;;;;;5060549;28;20143;-64
2021/10/14 04:06:21;;;;;;;21.92;12.70;;;;;;;;;;5062166;28;20048;-65
2021/10/14 04:09:06;;;;;;;25.00;13.88;;;;;;;;;;5057421;28;20056;-63
2021/10/14 04:11:51;;;;;;;28.60;14.77;;;;;;;;;;5059916;28;20045;-64
2021/10/14 04:14:36;;;;;;;26.90;14.75;;;;;;;;;;5060602;28;20056;-65
2021/10/14 04:17:22;;;;;;;24.63;15.07;;;;;;;;;;5060931;28;20049;-65
2021/10/14 04:20:08;;;;;;;21.75;13.63;;;;;;;;;;5057961;28;20049;-65
2021/10/14 04:22:53;;;;;;;24.80;14.48;;;;;;;;;;5061676;28;20091;-66
2021/10/14 04:25:39;;;;;;;27.30;14.70;;;;;;;;;;5067880;28;20056;-66
2021/10/14 04:28:24;;;;;;;27.20;15.55;;;;;;;;;;5070084;28;20080;-62
2021/10/14 04:31:09;;;;;;;24.88;14.95;;;;;;;;;;5078463;28;20056;-62
2021/10/14 04:33:55;;;;;;;29.48;15.77;;;;;;;;;;5077160;28;20119;-62
2021/10/14 04:36:40;;;;;;;26.52;16.33;;;;;;;;;;5076929;28;20044;-62
2021/10/14 04:39:25;;;;;;;35.72;19.27;;;;;;;;;;5077298;28;20052;-62
2021/10/14 04:42:10;;;;;;;30.70;17.50;;;;;;;;;;5077398;28;20532;-62
2021/10/14 04:44:55;;;;;;;30.67;17.88;;;;;;;;;;5078063;28;20049;-62
2021/10/14 04:47:41;;;;;;;35.00;17.20;;;;;;;;;;5078219;28;20557;-62
2021/10/14 04:50:26;;;;;;;30.08;18.55;;;;;;;;;;5077214;28;20056;-62
2021/10/14 04:53:12;;;;;;;34.05;18.45;;;;;;;;;;5078231;28;20049;-62
2021/10/14 04:55:57;;;;;;;27.73;16.92;;;;;;;;;;5077880;28;20052;-62
2021/10/14 04:58:42;;;;;;;32.90;15.75;;;;;;;;;;5077621;28;20048;-62
2021/10/14 05:01:28;;;;;;;28.13;14.75;;;;;;;;;;5077488;28;20506;-62
2021/10/14 05:04:13;;;;;;;29.98;15.38;;;;;;;;;;5077884;28;20052;-62
2021/10/14 05:06:58;;;;;;;24.15;15.05;;;;;;;;;;5077047;28;20056;-62
2021/10/14 05:09:44;;;;;;;29.48;15.35;;;;;;;;;;5077941;28;20218;-62
2021/10/14 05:12:29;;;;;;;29.30;15.55;;;;;;;;;;5078075;28;20056;-62
2021/10/14 05:15:14;;;;;;;26.38;16.40;;;;;;;;;;5077618;28;20045;-62
2021/10/14 05:18:00;;;;;;;28.75;16.13;;;;;;;;;;5077369;28;20048;-62
2021/10/14 05:20:45;;;;;;;32.88;16.20;;;;;;;;;;5078101;28;20048;-62
2021/10/14 05:23:30;;;;;;;29.70;17.27;;;;;;;;;;5077477;28;20048;-62
2021/10/14 05:26:16;;;;;;;38.42;18.85;;;;;;;;;;5077948;28;20123;-62
2021/10/14 05:29:01;;;;;;;36.67;18.75;;;;;;;;;;5078004;28;20048;-62
2021/10/14 05:31:47;;;;;;;32.65;17.90;;;;;;;;;;5077909;28;20060;-62
2021/10/14 05:34:32;;;;;;;33.30;19.00;;;;;;;;;;5075533;28;20124;-61
2021/10/14 05:37:17;;;;;;;38.47;18.75;;;;;;;;;;5085915;28;20056;-63
2021/10/14 05:40:03;;;;;;;35.08;18.25;;;;;;;;;;5072622;28;20088;-62
2021/10/14 05:42:49;;;;;;;32.95;19.45;;;;;;;;;;5058166;28;20109;-62
2021/10/14 05:45:34;;;;;;;35.42;19.88;;;;;;;;;;5085436;28;20049;-63
2021/10/14 05:48:19;;;;;;;34.45;18.60;;;;;;;;;;5070774;28;20056;-61
2021/10/14 05:51:05;;;;;;;36.05;18.88;;;;;;;;;;5061244;28;20048;-62
2021/10/14 05:53:50;;;;;;;33.22;18.85;;;;;;;;;;5074193;28;20048;-62
2021/10/14 05:56:35;;;;;;;31.20;17.35;;;;;;;;;;5074279;28;20044;-62
2021/10/14 05:59:20;;;;;;;29.30;19.25;;;;;;;;;;5074315;28;20052;-62
2021/10/14 06:02:05;;;;;;;37.60;17.88;;;;;;;;;;5074263;28;20074;-62
2021/10/14 06:04:51;;;;;;;29.42;18.75;;;;;;;;;;5074011;28;20048;-62
2021/10/14 06:07:36;;;;;;;28.13;17.85;;;;;;;;;;5074311;28;20521;-62
2021/10/14 06:10:21;;;;;;;39.15;19.05;;;;;;;;;;5074143;28;20045;-62
2021/10/14 06:13:07;;;;;;;34.55;18.38;;;;;;;;;;5074017;28;20053;-62
2021/10/14 06:15:52;;;;;;;34.63;18.77;;;;;;;;;;5073751;28;20052;-61
2021/10/14 06:18:39;;;;;;;32.80;17.83;;;;;;;;;;5073898;28;20053;-64
2021/10/14 06:21:24;;;;;;;34.85;18.40;;;;;;;;;;5073858;28;20053;-61
2021/10/14 06:24:10;;;;;;;36.35;18.77;;;;;;;;;;5073504;28;20060;-60
2021/10/14 06:26:55;;;;;;;34.13;19.15;;;;;;;;;;5073950;28;20415;-61
2021/10/14 06:29:41;;;;;;;31.58;18.58;;;;;;;;;;5072319;28;20060;-60
2021/10/14 06:32:26;;;;;;;32.30;18.38;;;;;;;;;;5072170;28;20049;-60
2021/10/14 06:35:13;;;;;;;28.25;16.92;;;;;;;;;;5073441;28;20422;-61
2021/10/14 06:37:59;;;;;;;34.65;18.30;;;;;;;;;;5073635;28;20069;-61
2021/10/14 06:40:44;;;;;;;27.42;17.23;;;;;;;;;;5073217;28;20562;-64
2021/10/14 06:43:29;;;;;;;24.90;15.35;;;;;;;;;;5073165;28;20052;-62
2021/10/14 06:46:14;;;;;;;28.67;16.58;;;;;;;;;;5073154;28;20052;-62
2021/10/14 06:49:00;;;;;;;29.27;15.63;;;;;;;;;;5073248;28;20052;-62
2021/10/14 06:51:45;;;;;;;18.52;12.02;;;;;;;;;;5073173;28;20498;-62
2021/10/14 06:54:30;;;;;;;26.00;11.73;;;;;;;;;;5072939;28;20422;-61
2021/10/14 06:57:16;;;;;;;21.02;11.13;;;;;;;;;;5073034;28;20052;-62
2021/10/14 07:00:02;;;;;;;21.10;11.63;;;;;;;;;;5073078;28;20411;-62
2021/10/14 07:02:47;;;;;;;20.08;11.38;;;;;;;;;;5072913;28;20048;-62
2021/10/14 07:05:33;;;;;;;17.67;9.80;;;;;;;;;;5073140;28;20057;-62
2021/10/14 07:08:18;;;;;;;14.27;9.50;;;;;;;;;;5073154;28;20061;-62
2021/10/14 07:11:04;;;;;;;11.13;8.82;;;;;;;;;;5072705;28;20494;-62
2021/10/14 07:13:49;;;;;;;13.02;9.18;;;;;;;;;;5071912;28;20052;-62
2021/10/14 07:16:34;;;;;;;9.75;7.75;;;;;;;;;;5073074;28;20049;-62
2021/10/14 07:19:20;;;;;;;12.82;8.20;;;;;;;;;;5072862;28;20058;-62
2021/10/14 07:22:05;;;;;;;9.82;7.47;;;;;;;;;;5073061;28;20402;-62
2021/10/14 07:24:50;;;;;;;10.95;7.22;;;;;;;;;;5072563;28;20119;-62
2021/10/14 07:27:36;;;;;;;11.35;7.13;;;;;;;;;;5072752;28;20465;-62
2021/10/14 07:30:21;;;;;;;11.98;7.57;;;;;;;;;;5072581;28;20064;-62
2021/10/14 07:33:07;;;;;;;13.45;7.32;;;;;;;;;;5072501;28;20061;-62
2021/10/14 07:35:51;;;;;;;12.18;7.70;;;;;;;;;;5072338;28;20049;-62
2021/10/14 07:38:37;;;;;;;12.35;6.97;;;;;;;;;;5072481;28;20048;-62
2021/10/14 07:41:22;;;;;;;10.57;6.65;;;;;;;;;;5072400;28;20114;-62
2021/10/14 07:44:07;;;;;;;8.88;6.47;;;;;;;;;;5071940;28;20123;-62
2021/10/14 07:46:53;;;;;;;8.13;7.07;;;;;;;;;;5072248;28;20052;-62
2021/10/14 07:49:38;;;;;;;14.43;7.60;;;;;;;;;;5072169;28;20064;-62
2021/10/14 07:52:23;;;;;;;9.10;6.65;;;;;;;;;;5072130;28;20119;-62
2021/10/14 07:55:10;;;;;;;13.85;7.13;;;;;;;;;;5071989;28;20052;-62
2021/10/14 07:57:55;;;;;;;10.60;7.13;;;;;;;;;;5071461;28;20495;-62
2021/10/14 08:00:40;;;;;;;9.95;6.90;;;;;;;;;;5072045;28;20506;-62
2021/10/14 08:03:26;;;;;;;15.73;7.53;;;;;;;;;;5071749;28;20049;-62
2021/10/14 08:06:11;;;;;;;15.75;7.82;;;;;;;;;;5071961;28;20438;-62
2021/10/14 08:08:57;;;;;;;17.60;8.27;;;;;;;;;;5072150;28;20056;-61
2021/10/14 08:11:42;;;;;;;11.80;7.10;;;;;;;;;;5072098;28;20410;-62
2021/10/14 08:14:27;;;;;;;11.02;7.35;;;;;;;;;;5070575;28;20054;-62
2021/10/14 08:17:12;;;;;;;12.57;6.80;;;;;;;;;;5072067;28;20437;-61
2021/10/14 08:19:58;;;;;;;11.70;6.85;;;;;;;;;;5072456;28;20056;-61
2021/10/14 08:22:43;;;;;;;12.25;6.78;;;;;;;;;;5072287;28;20414;-60
2021/10/14 08:25:29;;;;;;;8.48;6.45;;;;;;;;;;5077049;28;20048;-63
2021/10/14 08:28:14;;;;;;;8.98;6.35;;;;;;;;;;5079380;28;20056;-63
2021/10/14 08:30:59;;;;;;;8.70;6.57;;;;;;;;;;5077883;28;20053;-63
2021/10/14 08:33:45;;;;;;;9.98;6.43;;;;;;;;;;5079092;28;20052;-62
2021/10/14 08:36:30;;;;;;;14.18;7.05;;;;;;;;;;5079222;28;20048;-64
2021/10/14 08:39:15;;;;;;;7.28;5.70;;;;;;;;;;5081130;28;20053;-63
2021/10/14 08:42:00;;;;;;;10.95;6.20;;;;;;;;;;5078792;28;20052;-63
2021/10/14 08:44:45;;;;;;;9.95;6.13;;;;;;;;;;5091874;22;20048;-62
2021/10/14 08:47:31;;;;;;;10.68;5.80;;;;;;;;;;5091950;28;20048;-62
2021/10/14 08:50:16;;;;;;;12.98;5.90;;;;;;;;;;5091856;28;20052;-61
2021/10/14 08:53:01;;;;;;;10.02;5.75;;;;;;;;;;5072773;28;20053;-60
2021/10/14 08:55:47;;;;;;;9.02;5.05;;;;;;;;;;5071291;28;20135;-61
2021/10/14 08:58:32;;;;;;;15.45;6.47;;;;;;;;;;5071777;28;20048;-61
2021/10/14 09:01:17;;;;;;;12.32;6.20;;;;;;;;;;5071318;28;20510;-61
2021/10/14 09:04:11;;;;;;;10.52;5.28;;;;;;;;;;5071188;28;20120;-61
2021/10/14 09:06:58;;;;;;;12.43;5.57;;;;;;;;;;5071424;28;20529;-61
2021/10/14 09:09:43;;;;;;;13.65;5.63;;;;;;;;;;5058450;28;20056;-61
2021/10/14 09:12:33;;;;;;;10.88;5.25;;;;;;;;;;5074863;28;20052;-63
2021/10/14 09:15:18;;;;;;;10.65;4.38;;;;;;;;;;5074904;28;20498;-62
2021/10/14 09:18:03;;;;;;;8.10;4.78;;;;;;;;;;5075339;28;20060;-62
2021/10/14 09:20:48;;;;;;;7.93;4.82;;;;;;;;;;5075404;28;20052;-63
2021/10/14 09:23:34;;;;;;;9.82;5.22;;;;;;;;;;5075141;28;20402;-62
2021/10/14 09:26:32;;;;;;;10.52;4.40;;;;;;;;;;5075442;28;20045;-61
2021/10/14 09:29:17;;;;;;;12.32;4.15;;;;;;;;;;5074857;28;20048;-61
2021/10/14 09:32:04;;;;;;;10.52;4.85;;;;;;;;;;5074838;28;20052;-61
2021/10/14 09:34:49;;;;;;;10.23;4.53;;;;;;;;;;5074653;28;20052;-62
2021/10/14 09:37:34;;;;;;;7.75;4.20;;;;;;;;;;5074659;28;20406;-61
2021/10/14 09:40:20;;;;;;;10.57;4.78;;;;;;;;;;5074658;28;20502;-62
2021/10/14 09:43:05;;;;;;;10.45;4.93;;;;;;;;;;5059459;28;20127;-62
2021/10/14 09:45:50;;;;;;;11.05;5.05;;;;;;;;;;5074557;28;20067;-61
2021/10/14 09:48:40;;;;;;;8.77;4.60;;;;;;;;;;5074542;28;20044;-62
2021/10/14 09:51:25;;;;;;;11.80;4.60;;;;;;;;;;5074752;28;20418;-63
2021/10/14 09:54:11;;;;;;;7.60;4.45;;;;;;;;;;5074086;28;20060;-62
2021/10/14 09:56:56;;;;;;;9.40;4.75;;;;;;;;;;5074730;28;20049;-62
2021/10/14 09:59:45;;;;;;;11.00;4.65;;;;;;;;;;5075079;28;20048;-62
2021/10/14 10:02:30;;;;;;;9.45;4.32;;;;;;;;;;5056372;28;20052;-63
2021/10/14 10:05:16;;;;;;;6.85;4.07;;;;;;;;;;5074326;28;20048;-62
2021/10/14 10:08:02;;;;;;;11.75;4.15;;;;;;;;;;5059378;28;20061;-62
2021/10/14 10:10:47;;;;;;;13.48;4.57;;;;;;;;;;5059154;28;20056;-61
2021/10/14 10:13:35;;;;;;;9.60;3.95;;;;;;;;;;5073596;28;20649;-61
2021/10/14 10:16:24;;;;;;;7.53;4.78;;;;;;;;;;5059463;28;20266;-61
2021/10/14 10:19:10;;;;;;;10.32;4.50;;;;;;;;;;5074046;28;20052;-61
2021/10/14 10:21:55;;;;;;;7.30;4.30;;;;;;;;;;5058406;28;20044;-61
2021/10/14 10:24:40;;;;;;;11.00;4.65;;;;;;;;;;5073367;28;20490;-61
2021/10/14 10:27:34;;;;;;;7.68;3.80;;;;;;;;;;5073931;28;20127;-61
2021/10/14 10:30:29;;;;;;;8.20;4.03;;;;;;;;;;5073939;28;20060;-61
2021/10/14 10:33:14;;;;;;;11.52;4.25;;;;;;;;;;5073691;28;20224;-61
2021/10/14 10:35:59;;;;;;;7.38;4.13;;;;;;;;;;5058399;28;20403;-61
2021/10/14 10:38:44;;;;;;;6.80;4.25;;;;;;;;;;5073819;28;20080;-61
2021/10/14 10:41:29;;;;;;;6.30;3.40;;;;;;;;;;5073627;28;20449;-61
2021/10/14 10:44:14;;;;;;;6.15;3.05;;;;;;;;;;5073017;28;20518;-61
2021/10/14 10:47:00;;;;;;;9.57;3.45;;;;;;;;;;5073603;28;20056;-62
2021/10/14 10:49:57;;;;;;;5.13;3.40;;;;;;;;;;5073514;28;20049;-61
2021/10/14 10:52:46;;;;;;;6.35;3.35;;;;;;;;;;5073188;28;20060;-61
2021/10/14 10:55:45;;;;;;;4.45;2.60;;;;;;;;;;5073020;28;20048;-62
2021/10/14 10:58:30;;;;;;;6.05;2.85;;;;;;;;;;5072028;28;20052;-62
2021/10/14 11:01:17;;;;;;;7.70;2.50;;;;;;;;;;5073122;28;20179;-61
2021/10/14 11:04:03;;;;;;;4.13;2.47;;;;;;;;;;5072941;28;20056;-61
2021/10/14 11:06:52;;;;;;;6.20;2.40;;;;;;;;;;5072939;28;20489;-61
2021/10/14 11:09:42;;;;;;;9.75;3.08;;;;;;;;;;5073183;28;20387;-61
2021/10/14 11:12:27;;;;;;;7.07;3.20;;;;;;;;;;5073134;28;20394;-61
2021/10/14 11:15:16;;;;;;;5.93;2.97;;;;;;;;;;5072646;28;20049;-61
2021/10/14 11:18:04;;;;;;;7.38;2.70;;;;;;;;;;5072911;28;20426;-63
2021/10/14 11:20:52;;;;;;;5.95;3.00;;;;;;;;;;5072977;28;20048;-63
2021/10/14 11:23:37;;;;;;;6.82;2.75;;;;;;;;;;5072360;28;20518;-63
2021/10/14 11:26:31;;;;;;;6.78;2.83;;;;;;;;;;5072489;28;20052;-63
2021/10/14 11:29:18;;;;;;;7.43;3.28;;;;;;;;;;5072655;28;20133;-63
2021/10/14 11:32:06;;;;;;;6.72;3.42;;;;;;;;;;5072193;28;20457;-63
2021/10/14 11:34:51;;;;;;;11.70;3.50;;;;;;;;;;5071958;28;20502;-63
2021/10/14 11:37:36;;;;;;;5.72;3.28;;;;;;;;;;5072358;28;20430;-63
2021/10/14 11:40:34;;;;;;;5.28;3.47;;;;;;;;;;5072411;28;20562;-63
2021/10/14 11:43:23;;;;;;;5.32;3.33;;;;;;;;;;5072324;28;20045;-63
2021/10/14 11:46:08;;;;;;;6.20;3.50;;;;;;;;;;5072383;28;20048;-63
2021/10/14 11:49:00;;;;;;;7.78;3.92;;;;;;;;;;5072090;28;20688;-63
2021/10/14 11:51:49;;;;;;;6.70;3.88;;;;;;;;;;5072428;28;20086;-63
2021/10/14 11:54:38;;;;;;;8.63;3.92;;;;;;;;;;5071968;28;20067;-63
2021/10/14 11:57:30;;;;;;;5.10;3.85;;;;;;;;;;5071956;28;20466;-63
2021/10/14 12:00:15;;;;;;;5.57;3.30;;;;;;;;;;5072290;28;20044;-63
2021/10/14 12:03:00;;;;;;;9.95;4.20;;;;;;;;;;5072107;28;20053;-63
2021/10/14 12:05:46;;;;;;;8.27;3.85;;;;;;;;;;5071719;28;20498;-63
2021/10/14 12:08:31;;;;;;;14.77;4.78;;;;;;;;;;5072049;28;20431;-63
2021/10/14 12:11:17;;;;;;;11.15;4.13;;;;;;;;;;5057091;28;20127;-63
2021/10/14 12:14:03;;;;;;;7.18;4.18;;;;;;;;;;5071612;28;20087;-62
2021/10/14 12:17:03;;;;;;;7.05;4.18;;;;;;;;;;5072019;28;20049;-63
2021/10/14 12:19:49;;;;;;;9.20;3.45;;;;;;;;;;5056521;28;20044;-64
2021/10/14 12:22:39;;;;;;;8.10;4.40;;;;;;;;;;5071877;28;20056;-63
2021/10/14 12:25:28;;;;;;;9.95;4.03;;;;;;;;;;5071720;28;20048;-62
2021/10/14 12:28:23;;;;;;;8.63;4.20;;;;;;;;;;5071788;28;20048;-63
2021/10/14 12:31:09;;;;;;;10.00;4.50;;;;;;;;;;5071999;28;20056;-63
2021/10/14 12:33:58;;;;;;;7.60;3.78;;;;;;;;;;5071608;28;20060;-63
2021/10/14 12:36:44;;;;;;;6.68;3.30;;;;;;;;;;5071780;28;20251;-63
2021/10/14 12:39:29;;;;;;;8.30;3.67;;;;;;;;;;5071807;28;20124;-63
2021/10/14 12:42:17;;;;;;;6.15;3.80;;;;;;;;;;5071792;28;20426;-64
2021/10/14 12:45:06;;;;;;;10.10;3.85;;;;;;;;;;5074786;28;20048;-63
2021/10/14 12:47:53;;;;;;;15.30;4.75;;;;;;;;;;5075897;28;20088;-62
2021/10/14 12:53:59;;;;;;;11.80;3.92;;;;;;;;;;5075458;28;20052;-62
2021/10/14 12:56:45;;;;;;;11.60;3.97;;;;;;;;;;5075535;28;20056;-63
2021/10/14 12:59:30;;;;;;;9.23;4.50;;;;;;;;;;5076054;28;20045;-64
2021/10/14 13:02:15;;;;;;;7.95;3.55;;;;;;;;;;5076965;28;20052;-64
2021/10/14 13:05:01;;;;;;;9.20;3.90;;;;;;;;;;5076681;28;20048;-65
2021/10/14 13:07:46;;;;;;;7.28;3.20;;;;;;;;;;5076759;28;20060;-63
2021/10/14 13:10:33;;;;;;;9.70;3.85;;;;;;;;;;5075150;28;20498;-64
2021/10/14 13:13:18;;;;;;;7.45;3.50;;;;;;;;;;5060513;28;20049;-64
2021/10/14 13:16:03;;;;;;;7.85;3.65;;;;;;;;;;5075217;28;20056;-64
2021/10/14 13:18:48;;;;;;;7.85;3.47;;;;;;;;;;5074948;28;20076;-63
2021/10/14 13:21:34;;;;;;;7.40;3.42;;;;;;;;;;5075116;28;20057;-63
2021/10/14 13:24:19;;;;;;;10.30;3.92;;;;;;;;;;5074682;28;20507;-63
2021/10/14 13:27:04;;;;;;;7.07;3.80;;;;;;;;;;5074982;28;20457;-63
2021/10/14 13:29:50;;;;;;;7.68;4.63;;;;;;;;;;5074897;28;20502;-62
2021/10/14 13:32:35;;;;;;;9.48;4.10;;;;;;;;;;5075069;28;20131;-63
2021/10/14 13:35:21;;;;;;;8.65;4.57;;;;;;;;;;5074411;28;20120;-62
2021/10/14 13:38:06;;;;;;;7.25;3.75;;;;;;;;;;5074839;28;20048;-64
2021/10/14 13:40:56;;;;;;;5.90;4.22;;;;;;;;;;5074743;28;20049;-64
2021/10/14 13:43:46;;;;;;;10.23;4.95;;;;;;;;;;5074173;28;20048;-63
2021/10/14 13:46:31;;;;;;;8.57;4.43;;;;;;;;;;5074763;28;20048;-63
2021/10/14 13:49:16;;;;;;;7.40;4.32;;;;;;;;;;5074537;28;20052;-64
2021/10/14 13:52:01;;;;;;;8.40;5.30;;;;;;;;;;5074333;28;20427;-64
2021/10/14 13:54:47;;;;;;;6.18;4.97;;;;;;;;;;5074281;28;20056;-63
2021/10/14 13:57:32;;;;;;;9.60;6.28;;;;;;;;;;5073653;28;20049;-63
2021/10/14 14:00:19;;;;;;;11.13;5.53;;;;;;;;;;5074240;28;20044;-63
2021/10/14 14:03:04;;;;;;;9.25;5.93;;;;;;;;;;5074265;28;20055;-63
2021/10/14 14:05:50;;;;;;;12.07;5.65;;;;;;;;;;5074183;28;20052;-63
2021/10/14 14:08:35;;;;;;;9.30;5.15;;;;;;;;;;5074130;28;20053;-64
2021/10/14 14:11:20;;;;;;;9.07;5.28;;;;;;;;;;5074017;28;20510;-63
2021/10/14 14:14:05;;;;;;;11.68;6.10;;;;;;;;;;5073779;28;20057;-63
2021/10/14 14:16:51;;;;;;;10.13;5.97;;;;;;;;;;5073907;28;20123;-63
2021/10/14 14:19:36;;;;;;;12.32;5.93;;;;;;;;;;5074193;28;20460;-63
2021/10/14 14:22:21;;;;;;;6.72;5.10;;;;;;;;;;5073907;28;20507;-64
2021/10/14 14:25:09;;;;;;;9.10;4.68;;;;;;;;;;5073114;28;20059;-63
2021/10/14 14:27:54;;;;;;;10.63;5.53;;;;;;;;;;5073919;28;20049;-63
2021/10/14 14:30:40;;;;;;;6.97;4.53;;;;;;;;;;5073906;28;20052;-64
2021/10/14 14:33:26;;;;;;;6.72;4.18;;;;;;;;;;5058617;28;20052;-64
2021/10/14 14:36:12;;;;;;;8.25;4.10;;;;;;;;;;5058890;28;20057;-64
2021/10/14 14:38:57;;;;;;;6.57;3.53;;;;;;;;;;5073534;28;20447;-63
2021/10/14 14:41:42;;;;;;;4.15;3.08;;;;;;;;;;5073529;28;20044;-64
2021/10/14 14:44:28;;;;;;;5.22;3.20;;;;;;;;;;5073530;28;20053;-63
2021/10/14 14:47:13;;;;;;;6.55;3.30;;;;;;;;;;5072801;28;20060;-63
2021/10/14 14:50:00;;;;;;;5.13;2.85;;;;;;;;;;5073435;28;20119;-64
2021/10/14 14:52:46;;;;;;;5.95;2.70;;;;;;;;;;5073599;28;20054;-64
2021/10/14 14:55:31;;;;;;;4.10;2.53;;;;;;;;;;5072667;28;20511;-64
2021/10/14 14:58:17;;;;;;;7.70;2.40;;;;;;;;;;5072784;28;20049;-63
2021/10/14 15:01:02;;;;;;;5.07;2.35;;;;;;;;;;5073219;28;20409;-64
2021/10/14 15:03:47;;;;;;;4.43;1.95;;;;;;;;;;5072667;28;20502;-63
2021/10/14 15:06:33;;;;;;;5.35;2.47;;;;;;;;;;5073233;28;20048;-64
2021/10/14 15:09:18;;;;;;;5.60;2.20;;;;;;;;;;5073164;28;20056;-63
2021/10/14 15:12:07;;;;;;;2.78;2.00;;;;;;;;;;5073077;28;20123;-64
2021/10/14 15:14:52;;;;;;;4.68;1.88;;;;;;;;;;5072704;28;20059;-63
2021/10/14 15:17:37;;;;;;;5.25;1.80;;;;;;;;;;5072757;28;20359;-63
2021/10/14 15:20:22;;;;;;;3.15;1.70;;;;;;;;;;5072905;28;20119;-63
2021/10/14 15:23:08;;;;;;;3.83;1.38;;;;;;;;;;5072724;28;20124;-63
2021/10/14 15:25:53;;;;;;;6.05;1.88;;;;;;;;;;5072812;28;20052;-63
2021/10/14 15:28:39;;;;;;;2.28;1.55;;;;;;;;;;5072839;28;20553;-63
2021/10/14 15:31:24;;;;;;;4.07;1.77;;;;;;;;;;5072552;28;20499;-63
2021/10/14 15:34:09;;;;;;;4.55;1.75;;;;;;;;;;5072090;28;20060;-63
2021/10/14 15:36:55;;;;;;;3.92;1.42;;;;;;;;;;5072338;28;20082;-63
2021/10/14 15:39:43;;;;;;;3.47;1.80;;;;;;;;;;5072523;28;20052;-63
2021/10/14 15:42:28;;;;;;;6.10;1.58;;;;;;;;;;5072338;28;20052;-63
2021/10/14 15:45:14;;;;;;;3.65;1.73;;;;;;;;;;5072344;28;20048;-62
2021/10/14 15:48:02;;;;;;;5.25;2.10;;;;;;;;;;5072082;28;20498;-62
2021/10/14 15:50:47;;;;;;;6.32;2.10;;;;;;;;;;5072215;28;20044;-62
2021/10/14 15:53:33;;;;;;;4.10;1.70;;;;;;;;;;5072049;28;20060;-61
2021/10/14 15:56:18;;;;;;;3.03;1.75;;;;;;;;;;5072250;28;20045;-63
2021/10/14 15:59:05;;;;;;;6.75;2.33;;;;;;;;;;5071987;28;20048;-62
2021/10/14 16:01:50;;;;;;;6.40;1.80;;;;;;;;;;5072338;28;20119;-62
2021/10/14 16:04:35;;;;;;;8.43;2.42;;;;;;;;;;5071762;28;20495;-62
2021/10/14 16:07:20;;;;;;;8.02;2.13;;;;;;;;;;5071835;28;20423;-63
2021/10/14 16:10:06;;;;;;;6.25;1.80;;;;;;;;;;5072044;28;20502;-62
2021/10/14 16:12:51;;;;;;;4.28;1.60;;;;;;;;;;5072257;28;20053;-64
2021/10/14 16:15:36;;;;;;;5.20;1.75;;;;;;;;;;5072307;28;20056;-64
2021/10/14 16:18:22;;;;;;;7.60;2.28;;;;;;;;;;5071913;28;20048;-64
2021/10/14 16:21:08;;;;;;;4.05;1.95;;;;;;;;;;5072685;28;20410;-64
2021/10/14 16:23:53;;;;;;;7.43;2.15;;;;;;;;;;5071645;28;20053;-64